Time;durP1;ratioP1;P1;durP2;ratioP2;P2;SDS_P1;SDS_P2;PMS_P1;PMS_P2;Temp;Humidity;BMP_temperature;BMP_pressure;BME280_temperature;BME280_humidity;BME280_pressure;Samples;Min_cycle;Max_cycle;Signal;HPM_P1;HPM_P2
2021/10/12 03:31:11;;;;;;;31.50;21.60;;;;;;;13.25;62.39;99338.63;8028657;22;20231;-81
2021/10/12 03:34:33;;;;;;;33.77;22.83;;;;;;;13.29;62.92;99321.75;6907910;28;20231;-81
2021/10/12 03:37:55;;;;;;;31.37;20.20;;;;;;;13.61;61.66;99299.22;6921473;28;20212;-81
2021/10/12 03:41:17;;;;;;;34.87;23.53;;;;;;;13.56;61.48;99260.22;6921522;28;20223;-82
2021/10/12 03:44:39;;;;;;;37.93;23.87;;;;;;;13.16;62.09;99256.78;6920353;28;20211;-82
2021/10/12 03:48:01;;;;;;;33.10;22.67;;;;;;;13.32;63.58;99331.34;6921538;28;20200;-81
2021/10/12 03:51:23;;;;;;;35.57;23.17;;;;;;;13.65;62.68;99324.00;6921135;28;20231;-82
2021/10/12 03:54:45;;;;;;;40.67;25.40;;;;;;;13.79;62.31;99325.63;6919196;28;20231;-81
2021/10/12 03:58:06;;;;;;;40.80;25.57;;;;;;;14.06;61.81;99322.63;6921392;28;20208;-82
2021/10/12 04:01:28;;;;;;;39.53;25.83;;;;;;;14.06;61.62;99313.66;6901819;28;20717;-82
2021/10/12 04:04:51;;;;;;;27.33;19.90;;;;;;;14.41;60.68;99315.81;6895405;28;20688;-82
2021/10/12 04:08:12;;;;;;;33.10;21.57;;;;;;;14.10;60.62;99323.03;6921971;28;20195;-81
2021/10/12 04:11:34;;;;;;;33.67;20.70;;;;;;;13.85;61.32;99309.34;6908859;28;20234;-82
2021/10/12 04:14:55;;;;;;;30.40;21.00;;;;;;;14.03;60.97;99308.63;6894230;28;20232;-81
2021/10/12 04:18:17;;;;;;;33.73;22.33;;;;;;;13.85;61.59;99303.94;6894573;28;20216;-86
2021/10/12 04:21:40;;;;;;;34.13;21.70;;;;;;;13.90;61.37;99316.81;6896154;28;20918;-81
2021/10/12 04:25:02;;;;;;;30.97;21.53;;;;;;;14.11;61.37;99320.06;6894552;28;20227;-81
2021/10/12 04:28:23;;;;;;;29.43;20.20;;;;;;;14.11;61.39;99319.25;6912145;28;20209;-82
2021/10/12 04:31:45;;;;;;;36.67;22.37;;;;;;;14.21;61.11;99301.50;6905504;28;20486;-81
2021/10/12 04:35:07;;;;;;;30.77;21.57;;;;;;;14.14;61.34;99321.53;6894400;28;20376;-81
2021/10/12 04:38:30;;;;;;;31.53;21.87;;;;;;;14.07;61.72;99313.44;6895909;28;20218;-81
2021/10/12 04:41:52;;;;;;;34.53;21.73;;;;;;;13.98;61.88;99314.72;6898102;28;20883;-81
2021/10/12 04:45:14;;;;;;;29.00;21.27;;;;;;;14.06;61.75;99314.50;6905342;28;20215;-82
2021/10/12 04:48:35;;;;;;;36.70;23.13;;;;;;;14.21;61.91;99293.38;6918101;28;20691;-82
2021/10/12 04:51:57;;;;;;;40.10;22.60;;;;;;;14.46;61.32;99305.13;6918513;28;20267;-82
2021/10/12 04:55:20;;;;;;;34.17;22.93;;;;;;;14.27;61.85;99302.53;6918674;28;20708;-81
2021/10/12 04:58:41;;;;;;;33.03;22.03;;;;;;;14.07;62.64;99299.88;6890569;28;20201;-82
2021/10/12 05:02:03;;;;;;;35.07;22.87;;;;;;;14.20;62.26;99290.88;6891145;28;20501;-81
2021/10/12 05:05:25;;;;;;;36.27;24.10;;;;;;;14.14;62.79;99310.69;6918256;28;20218;-82
2021/10/12 05:08:47;;;;;;;37.87;24.60;;;;;;;14.11;63.01;99294.88;6912381;28;20613;-82
2021/10/12 05:12:10;;;;;;;37.80;24.43;;;;;;;14.17;62.71;99296.72;6896494;28;20296;-81
2021/10/12 05:15:32;;;;;;;41.30;25.60;;;;;;;14.27;62.53;99310.69;6896083;28;20238;-82
2021/10/12 05:18:56;;;;;;;36.23;24.50;;;;;;;14.07;63.20;99304.47;6896891;28;20220;-81
2021/10/12 05:22:18;;;;;;;42.07;25.40;;;;;;;14.14;63.15;99284.41;6895676;28;20239;-81
2021/10/12 05:25:40;;;;;;;38.57;24.83;;;;;;;14.50;62.36;99298.22;6896713;28;20212;-81
2021/10/12 05:29:03;;;;;;;37.70;25.33;;;;;;;14.43;62.42;99297.44;6895929;28;20233;-82
2021/10/12 05:32:25;;;;;;;41.50;31.13;;;;;;;14.46;62.12;99263.59;6896845;28;20596;-81
2021/10/12 05:35:47;;;;;;;31.40;22.67;;;;;;;14.78;61.23;99295.94;6901111;28;20681;-82
2021/10/12 05:39:09;;;;;;;37.03;24.30;;;;;;;14.56;62.33;99296.50;6895926;28;20240;-82
2021/10/12 05:42:31;;;;;;;60.53;39.13;;;;;;;14.72;61.53;99288.69;6895041;28;20228;-82
2021/10/12 05:45:54;;;;;;;35.20;24.33;;;;;;;14.87;61.33;99281.03;6895792;28;20208;-81
2021/10/12 05:49:15;;;;;;;31.60;22.07;;;;;;;14.68;60.56;99292.06;6895574;28;20215;-83
2021/10/12 05:52:38;;;;;;;32.37;22.30;;;;;;;14.49;61.77;99291.13;6903867;28;20224;-83
2021/10/12 05:56:07;;;;;;;33.23;20.60;;;;;;;14.66;61.53;99284.13;6909829;28;20220;-83
2021/10/12 05:59:29;;;;;;;39.07;23.83;;;;;;;14.39;61.98;99284.53;6907648;28;20660;-83
2021/10/12 06:02:52;;;;;;;43.53;25.67;;;;;;;14.36;62.67;99276.81;6901325;28;20219;-83
2021/10/12 06:06:14;;;;;;;41.53;25.47;;;;;;;14.40;62.48;99278.84;6893881;28;20673;-83
2021/10/12 06:09:35;;;;;;;41.30;26.10;;;;;;;14.50;62.37;99257.53;6893701;28;20812;-82
2021/10/12 06:12:57;;;;;;;36.47;24.30;;;;;;;14.77;61.92;99279.88;6893661;28;20237;-82
2021/10/12 06:16:18;;;;;;;29.80;21.00;;;;;;;14.68;60.86;99254.88;6893186;28;20226;-82
2021/10/12 06:19:41;;;;;;;33.13;21.87;;;;;;;14.79;61.41;99285.91;6893887;28;20211;-82
2021/10/12 06:23:03;;;;;;;39.30;23.73;;;;;;;14.31;62.65;99279.34;6909145;28;20251;-82
2021/10/12 06:26:25;;;;;;;42.80;26.30;;;;;;;13.89;63.50;99204.03;6922678;28;20268;-82
2021/10/12 06:29:47;;;;;;;36.00;24.90;;;;;;;14.72;62.34;99285.13;6918903;28;20215;-83
2021/10/12 06:33:09;;;;;;;41.33;23.60;;;;;;;14.09;63.30;99289.66;6891987;28;20248;-82
2021/10/12 06:36:31;;;;;;;41.03;24.53;;;;;;;14.27;63.06;99287.09;6893378;28;20228;-82
2021/10/12 06:39:53;;;;;;;37.90;24.43;;;;;;;14.19;63.88;99287.34;6892828;28;20206;-82
2021/10/12 06:43:15;;;;;;;40.60;25.20;;;;;;;14.42;63.37;99289.50;6892472;28;20590;-82
2021/10/12 06:46:36;;;;;;;48.10;27.63;;;;;;;14.72;62.52;99279.69;6893480;28;20244;-82
2021/10/12 06:49:58;;;;;;;45.10;28.37;;;;;;;14.60;63.21;99295.03;6893104;28;20299;-82
2021/10/12 06:53:21;;;;;;;40.93;26.67;;;;;;;14.96;61.74;99292.47;6897336;28;20216;-82
2021/10/12 06:56:42;;;;;;;35.67;24.43;;;;;;;14.80;62.42;99290.31;6893380;28;20230;-82
2021/10/12 07:00:06;;;;;;;36.17;24.30;;;;;;;14.87;62.15;99282.94;6893881;28;20225;-82
2021/10/12 07:03:27;;;;;;;37.33;24.57;;;;;;;14.73;62.67;99270.50;6894848;28;20242;-82
2021/10/12 07:06:49;;;;;;;42.33;25.30;;;;;;;15.00;62.25;99293.69;6891707;28;20202;-82
2021/10/12 07:10:13;;;;;;;32.10;22.60;;;;;;;14.89;61.98;99278.09;6892202;28;20223;-82
2021/10/12 07:13:35;;;;;;;41.00;25.17;;;;;;;14.31;62.47;99246.78;6891085;28;20200;-82
2021/10/12 07:16:56;;;;;;;39.30;24.83;;;;;;;14.28;63.27;99267.03;6891595;28;20241;-82
2021/10/12 07:20:18;;;;;;;42.87;25.43;;;;;;;14.73;63.26;99276.78;6893463;28;20205;-82
2021/10/12 07:23:39;;;;;;;37.87;25.47;;;;;;;14.84;63.27;99283.38;6909517;28;20209;-82
2021/10/12 07:27:03;;;;;;;37.23;24.60;;;;;;;15.16;62.22;99272.22;6900323;28;20213;-82
2021/10/12 07:30:24;;;;;;;36.07;21.93;;;;;;;15.09;61.71;99281.47;6895284;28;20216;-82
2021/10/12 07:33:46;;;;;;;26.70;21.27;;;;;;;14.95;62.89;99280.78;6894639;28;20208;-83
2021/10/12 07:37:08;;;;;;;38.20;23.67;;;;;;;14.82;62.31;99286.28;6897265;28;20236;-82
2021/10/12 07:40:29;;;;;;;36.03;23.77;;;;;;;15.02;62.70;99289.69;6896136;28;20211;-82
2021/10/12 07:43:52;;;;;;;36.70;23.30;;;;;;;15.19;62.41;99284.53;6892687;28;20205;-82
2021/10/12 07:47:14;;;;;;;35.73;22.77;;;;;;;15.31;62.08;99291.75;6892922;28;20209;-83
2021/10/12 07:50:36;;;;;;;32.73;21.33;;;;;;;15.30;62.11;99279.22;6892708;28;20235;-82
2021/10/12 07:54:00;;;;;;;31.67;21.60;;;;;;;15.32;62.16;99277.13;6891319;28;20204;-83
2021/10/12 07:57:22;;;;;;;34.40;22.57;;;;;;;15.12;62.43;99287.31;6892910;28;20301;-83
2021/10/12 08:00:45;;;;;;;29.77;20.17;;;;;;;15.20;62.50;99287.03;6889204;28;20239;-83
2021/10/12 08:04:07;;;;;;;31.90;20.80;;;;;;;14.88;62.92;99260.16;6899674;28;20218;-83
2021/10/12 08:07:28;;;;;;;33.10;19.77;;;;;;;15.11;62.69;99287.53;6908860;28;20201;-83
2021/10/12 08:10:50;;;;;;;31.57;19.30;;;;;;;15.25;62.49;99278.22;6896958;28;20221;-82
2021/10/12 08:14:16;;;;;;;29.10;21.10;;;;;;;15.36;62.96;99267.47;6898432;28;20207;-82
2021/10/12 08:17:39;;;;;;;32.60;22.77;;;;;;;15.18;63.34;99277.44;6915204;28;20274;-83
2021/10/12 08:21:01;;;;;;;34.60;23.97;;;;;;;15.28;62.88;99273.16;6907310;28;20238;-82
2021/10/12 08:24:23;;;;;;;27.73;18.23;;;;;;;14.94;63.54;99272.84;6895090;28;20340;-83
2021/10/12 08:27:44;;;;;;;28.13;16.87;;;;;;;14.96;63.45;99255.28;6911342;28;20206;-82
2021/10/12 08:31:06;;;;;;;24.73;16.87;;;;;;;15.36;62.46;99262.06;6906055;28;20229;-83
2021/10/12 08:34:29;;;;;;;25.37;17.63;;;;;;;15.40;62.62;99255.09;6912687;28;20204;-83
2021/10/12 08:37:50;;;;;;;25.23;18.17;;;;;;;15.37;62.63;99254.72;6918512;28;20237;-83
2021/10/12 08:41:14;;;;;;;28.80;15.83;;;;;;;15.42;62.06;99255.72;6919666;28;20225;-83
2021/10/12 08:44:48;;;;;;;22.43;16.33;;;;;;;15.48;62.29;99253.97;6923999;28;20634;-83
2021/10/12 08:48:12;;;;;;;18.87;13.70;;;;;;;15.37;61.74;99213.94;6924346;28;20228;-82
2021/10/12 08:51:34;;;;;;;22.07;15.20;;;;;;;15.70;61.23;99244.31;6919406;28;20237;-83
2021/10/12 08:54:56;;;;;;;22.87;15.70;;;;;;;15.53;61.89;99243.25;6897579;28;20205;-82
2021/10/12 08:58:18;;;;;;;19.30;15.33;;;;;;;15.51;62.56;99242.66;6914260;28;20209;-83
2021/10/12 09:01:57;;;;;;;19.00;13.33;;;;;;;15.42;61.91;99233.97;6895202;28;20232;-83
2021/10/12 09:05:23;;;;;;;19.67;13.43;;;;;;;15.40;62.27;99241.50;6897610;28;20275;-83
2021/10/12 09:08:46;;;;;;;20.63;13.03;;;;;;;15.56;61.29;99230.03;6897996;28;20579;-83
2021/10/12 09:12:08;;;;;;;17.37;12.63;;;;;;;15.33;61.19;99216.28;6899615;28;20235;-85
2021/10/12 09:15:30;;;;;;;18.10;11.30;;;;;;;16.17;60.26;99222.56;6894298;28;20235;-83
2021/10/12 09:18:53;;;;;;;17.60;12.77;;;;;;;16.07;59.61;99183.38;6893068;28;20329;-82
2021/10/12 09:22:15;;;;;;;20.73;13.80;;;;;;;16.07;60.81;99216.00;6900423;28;20223;-83
2021/10/12 09:25:40;;;;;;;24.60;14.63;;;;;;;16.31;59.30;99194.13;6921894;28;20680;-83
2021/10/12 09:29:05;;;;;;;23.67;16.70;;;;;;;16.02;60.99;99211.28;6920405;28;20218;-82
2021/10/12 09:32:34;;;;;;;20.50;13.93;;;;;;;16.32;60.65;99205.81;6938725;22;20258;-82
2021/10/12 09:35:56;;;;;;;22.97;14.20;;;;;;;16.48;59.87;99202.47;6928877;28;20228;-83
2021/10/12 09:39:18;;;;;;;17.33;13.73;;;;;;;16.64;58.73;99194.44;6917328;28;20205;-83
2021/10/12 09:42:43;;;;;;;16.17;11.17;;;;;;;16.38;58.05;99194.00;6904911;28;20248;-81
2021/10/12 09:46:22;;;;;;;14.97;11.60;;;;;;;16.61;57.73;99183.19;6901811;28;20207;-82
2021/10/12 09:49:45;;;;;;;15.27;11.07;;;;;;;16.60;59.37;99184.25;6924783;28;20215;-82
2021/10/12 09:53:06;;;;;;;14.53;9.90;;;;;;;16.96;56.86;99154.09;6925108;28;20768;-84
2021/10/12 09:56:28;;;;;;;14.33;10.90;;;;;;;16.97;56.86;99163.91;6925470;28;20608;-84
2021/10/12 09:59:52;;;;;;;18.30;10.13;;;;;;;16.70;56.84;99140.97;6925295;28;20205;-83
2021/10/12 10:03:14;;;;;;;11.53;9.43;;;;;;;16.81;57.89;99165.47;6924690;28;20240;-84
2021/10/12 10:06:36;;;;;;;14.27;9.77;;;;;;;16.45;58.09;99143.06;6926555;28;20219;-83
2021/10/12 10:09:59;;;;;;;14.60;10.03;;;;;;;16.69;57.08;99144.75;6898327;28;20207;-83
2021/10/12 10:13:20;;;;;;;16.90;9.17;;;;;;;16.15;57.72;99142.25;6896932;28;20223;-83
2021/10/12 10:16:46;;;;;;;11.20;8.97;;;;;;;16.09;58.22;99157.59;6898265;28;20237;-85
2021/10/12 10:20:09;;;;;;;12.07;8.60;;;;;;;16.30;57.40;99143.47;6899230;28;20246;-84
2021/10/12 10:23:53;;;;;;;13.03;8.70;;;;;;;16.03;57.81;99144.94;6897653;28;20238;-84
2021/10/12 10:27:32;;;;;;;19.53;13.27;;;;;;;15.65;60.44;99147.16;6899418;28;20294;-83
2021/10/12 10:30:55;;;;;;;18.13;11.77;;;;;;;15.65;61.19;99135.44;6901750;28;20728;-84
2021/10/12 10:34:32;;;;;;;13.97;9.97;;;;;;;15.18;62.51;99125.34;6911786;28;20380;-85
2021/10/12 10:37:54;;;;;;;15.43;11.47;;;;;;;15.66;62.03;99132.50;6912378;28;20239;-85
2021/10/12 10:41:24;;;;;;;15.40;12.40;;;;;;;16.03;62.41;99136.78;6900502;28;20218;-83
2021/10/12 10:44:55;;;;;;;17.27;10.73;;;;;;;16.44;61.13;99116.88;6902250;28;20212;-85
2021/10/12 10:48:19;;;;;;;12.23;9.47;;;;;;;16.29;60.64;99132.81;6912789;28;20205;-83
2021/10/12 10:52:05;;;;;;;13.50;9.57;;;;;;;17.00;60.14;99111.69;6910600;28;20236;-85
2021/10/12 10:55:27;;;;;;;12.53;8.20;;;;;;;16.54;57.75;99111.69;6934281;28;20203;-86
2021/10/12 10:58:49;;;;;;;13.03;8.67;;;;;;;16.56;60.11;99117.72;6922088;28;20207;-85
2021/10/12 11:02:44;;;;;;;11.73;8.07;;;;;;;16.70;58.85;99103.66;6900714;28;20219;-86
2021/10/12 11:06:12;;;;;;;13.90;7.43;;;;;;;16.50;58.33;99099.63;6908539;28;20193;-85
2021/10/12 11:09:44;;;;;;;9.90;7.77;;;;;;;16.66;58.64;99102.50;6931743;28;20199;-86
2021/10/12 11:13:05;;;;;;;11.30;7.57;;;;;;;16.69;59.04;99084.84;6923626;28;20461;-85
2021/10/12 11:16:34;;;;;;;10.83;7.67;;;;;;;16.67;58.54;99076.06;6943735;28;20586;-85
2021/10/12 11:19:56;;;;;;;12.00;7.73;;;;;;;16.67;58.86;99076.06;6942281;28;20203;-84
2021/10/12 11:23:26;;;;;;;10.37;7.00;;;;;;;16.48;58.42;99085.44;6924666;28;20229;-86
2021/10/12 11:26:58;;;;;;;11.03;7.47;;;;;;;16.80;57.06;99070.41;6923197;28;20209;-85
2021/10/12 11:30:19;;;;;;;12.07;7.17;;;;;;;16.84;57.04;99080.56;6905214;28;20292;-86
2021/10/12 11:33:43;;;;;;;12.23;7.33;;;;;;;17.00;57.17;99074.41;6894448;28;20207;-84
2021/10/12 11:37:08;;;;;;;11.20;8.40;;;;;;;16.65;57.73;99070.88;6895152;28;20313;-86
2021/10/12 11:40:30;;;;;;;16.87;10.50;;;;;;;16.64;58.50;99068.41;6900334;28;20201;-84
2021/10/12 11:43:55;;;;;;;12.50;9.30;;;;;;;16.50;59.16;99061.50;6919981;28;20201;-83
2021/10/12 11:47:18;;;;;;;14.07;9.83;;;;;;;16.90;57.79;99041.50;6921411;28;20221;-83
2021/10/12 11:50:40;;;;;;;15.77;9.67;;;;;;;16.63;58.42;99036.78;6920336;28;20228;-84
2021/10/12 11:54:02;;;;;;;11.13;8.53;;;;;;;16.70;58.12;99049.19;6920056;28;20239;-83
2021/10/12 11:57:25;;;;;;;11.73;8.37;;;;;;;17.03;58.16;99032.19;6919580;28;20315;-84
2021/10/12 12:00:48;;;;;;;10.30;8.17;;;;;;;17.14;56.77;99045.81;6920042;28;20274;-83
2021/10/12 12:04:10;;;;;;;13.00;7.80;;;;;;;17.61;57.47;99024.69;6919172;28;20196;-84
2021/10/12 12:07:34;;;;;;;9.43;6.00;;;;;;;17.40;56.18;99018.00;6919430;28;20263;-84
2021/10/12 12:10:56;;;;;;;14.00;5.80;;;;;;;17.54;55.08;99005.75;6920310;28;20710;-84
2021/10/12 12:14:23;;;;;;;6.20;4.10;;;;;;;16.83;55.02;98999.09;6919242;28;20220;-84
2021/10/12 12:17:46;;;;;;;8.57;4.37;;;;;;;17.17;54.86;99006.34;6923225;28;20653;-84
2021/10/12 12:21:07;;;;;;;12.33;4.37;;;;;;;16.81;53.19;98991.16;6925495;28;20233;-84
2021/10/12 12:24:29;;;;;;;7.70;4.17;;;;;;;16.68;53.74;99001.53;6924705;28;20209;-83
2021/10/12 12:27:53;;;;;;;6.73;4.27;;;;;;;17.07;53.47;98989.81;6924642;28;20219;-84
2021/10/12 12:31:19;;;;;;;7.40;4.77;;;;;;;17.00;53.62;98973.63;6924805;28;20239;-84
2021/10/12 12:34:42;;;;;;;7.83;4.57;;;;;;;17.44;52.88;98988.38;6925075;28;20694;-84
2021/10/12 12:38:04;;;;;;;8.33;4.50;;;;;;;17.39;52.95;98982.84;6923828;28;20230;-84
2021/10/12 12:41:26;;;;;;;6.93;4.37;;;;;;;17.61;51.89;98984.63;6924319;28;20485;-83
2021/10/12 12:45:06;;;;;;;11.20;5.03;;;;;;;17.25;52.32;98971.38;6923647;28;20259;-84
2021/10/12 12:48:28;;;;;;;6.83;4.17;;;;;;;17.59;51.53;98972.31;6923873;28;20216;-84
2021/10/12 12:51:51;;;;;;;8.03;3.77;;;;;;;17.32;51.99;98960.31;6923539;28;20230;-84
2021/10/12 12:55:31;;;;;;;11.73;5.43;;;;;;;17.44;51.62;98964.69;6924139;28;20218;-84
2021/10/12 12:58:52;;;;;;;23.57;11.63;;;;;;;17.17;52.25;98960.03;6923416;28;20246;-84
2021/10/12 13:02:19;;;;;;;13.07;6.87;;;;;;;16.59;52.30;98965.66;6924143;28;20620;-84
2021/10/12 13:05:41;;;;;;;15.77;7.63;;;;;;;16.25;52.59;98957.50;6924670;28;20213;-84
2021/10/12 13:09:05;;;;;;;72.90;27.37;;;;;;;16.35;52.31;98961.25;6924130;28;20218;-83
2021/10/12 13:12:28;;;;;;;56.60;22.47;;;;;;;16.19;52.97;98959.28;6922813;28;20226;-83
2021/10/12 13:15:49;;;;;;;109.47;37.03;;;;;;;16.47;53.34;98959.41;6923810;28;20226;-84
2021/10/12 13:19:11;;;;;;;14.93;11.57;;;;;;;16.36;52.66;98945.78;6923410;28;20601;-84
2021/10/12 13:22:33;;;;;;;14.93;8.07;;;;;;;16.76;52.41;98955.66;6923250;28;20229;-84
2021/10/12 13:25:56;;;;;;;10.23;8.33;;;;;;;17.04;51.50;98955.69;6923389;28;20213;-84
2021/10/12 13:29:17;;;;;;;11.07;6.60;;;;;;;17.10;51.27;98948.47;6922513;28;20219;-84
2021/10/12 13:32:39;;;;;;;9.67;5.33;;;;;;;17.14;50.33;98950.44;6923799;28;20241;-84
2021/10/12 13:36:01;;;;;;;6.53;5.07;;;;;;;17.26;50.13;98945.78;6924250;28;20223;-84
2021/10/12 13:39:23;;;;;;;9.57;4.40;;;;;;;17.36;50.15;98945.13;6923589;28;20230;-84
2021/10/12 13:42:46;;;;;;;7.47;5.63;;;;;;;17.01;50.03;98941.72;6923350;28;20233;-84
2021/10/12 13:46:08;;;;;;;11.00;5.80;;;;;;;17.16;50.17;98940.13;6925330;28;20209;-84
2021/10/12 13:49:29;;;;;;;7.13;5.33;;;;;;;16.91;50.13;98944.25;6926901;28;20210;-81
2021/10/12 13:52:51;;;;;;;8.57;5.17;;;;;;;16.86;49.28;98942.25;6934509;28;20241;-84
2021/10/12 13:56:13;;;;;;;7.27;5.10;;;;;;;16.69;50.04;98935.09;6933209;28;20597;-82
2021/10/12 13:59:36;;;;;;;6.37;4.50;;;;;;;16.94;49.63;98913.81;6924521;28;20224;-82
2021/10/12 14:02:58;;;;;;;6.57;4.80;;;;;;;16.44;50.02;98924.50;6923765;28;20221;-81
2021/10/12 14:06:20;;;;;;;10.27;5.37;;;;;;;16.61;50.73;98925.41;6924268;28;20287;-82
2021/10/12 14:09:47;;;;;;;6.80;4.53;;;;;;;16.94;49.86;98930.16;6924454;28;20689;-81
2021/10/12 14:13:08;;;;;;;10.60;5.63;;;;;;;16.54;52.05;98935.59;6924140;28;20593;-81
2021/10/12 14:16:32;;;;;;;7.03;5.80;;;;;;;16.83;51.11;98922.84;6925708;28;20211;-81
2021/10/12 14:19:53;;;;;;;16.33;5.80;;;;;;;16.80;50.58;98923.34;6926442;28;20216;-82
2021/10/12 14:23:15;;;;;;;9.80;5.37;;;;;;;16.76;49.45;98927.63;6924277;28;20222;-82
2021/10/12 14:26:37;;;;;;;5.60;4.80;;;;;;;16.30;50.67;98914.91;6923684;28;20208;-82
2021/10/12 14:30:02;;;;;;;9.20;5.10;;;;;;;16.26;50.60;98921.03;6923829;28;20579;-82
2021/10/12 14:33:25;;;;;;;9.37;4.90;;;;;;;16.13;50.96;98894.94;6922756;28;20725;-85
2021/10/12 14:36:47;;;;;;;10.20;5.10;;;;;;;16.74;50.19;98892.44;6924233;28;20221;-82
2021/10/12 14:40:10;;;;;;;7.00;4.80;;;;;;;16.64;50.03;98902.31;6923562;28;20205;-82
2021/10/12 14:43:32;;;;;;;6.33;5.67;;;;;;;16.63;50.77;98903.41;6923703;28;20207;-84
2021/10/12 14:46:54;;;;;;;7.70;4.90;;;;;;;17.17;49.88;98906.34;6924591;28;20211;-81
2021/10/12 14:50:18;;;;;;;8.03;4.73;;;;;;;16.97;49.50;98902.41;6923299;28;20202;-81
2021/10/12 14:53:39;;;;;;;9.53;5.00;;;;;;;16.83;50.34;98893.75;6924270;28;20295;-81
2021/10/12 14:57:01;;;;;;;7.90;4.67;;;;;;;16.97;49.81;98896.97;6933717;28;20231;-82
2021/10/12 15:00:23;;;;;;;8.23;5.17;;;;;;;17.12;49.09;98897.28;6922562;28;20208;-82
2021/10/12 15:03:45;;;;;;;7.93;5.27;;;;;;;16.85;49.82;98893.47;6921788;28;20225;-82
2021/10/12 15:07:08;;;;;;;6.53;4.93;;;;;;;16.63;50.29;98887.06;6923276;28;20219;-83
2021/10/12 15:10:30;;;;;;;12.47;5.17;;;;;;;16.66;49.87;98895.56;6922886;28;20202;-82
2021/10/12 15:13:51;;;;;;;6.83;5.07;;;;;;;16.63;50.34;98896.03;6922466;28;20219;-82
2021/10/12 15:17:13;;;;;;;10.10;5.03;;;;;;;16.81;50.02;98870.53;6922227;28;20628;-82
2021/10/12 15:20:35;;;;;;;11.53;5.17;;;;;;;17.06;49.04;98879.19;6923165;28;20232;-82
2021/10/12 15:23:58;;;;;;;8.17;5.00;;;;;;;16.70;50.04;98887.75;6922555;28;20597;-81
2021/10/12 15:27:19;;;;;;;8.47;5.20;;;;;;;16.69;49.94;98873.28;6921785;28;20204;-82
2021/10/12 15:30:42;;;;;;;8.13;5.37;;;;;;;16.83;51.24;98873.84;6933172;23;20240;-82
2021/10/12 15:34:04;;;;;;;7.93;5.90;;;;;;;16.97;52.28;98881.47;6892455;28;20310;-82
2021/10/12 15:37:25;;;;;;;8.20;4.93;;;;;;;16.94;52.59;98864.78;6892337;28;20228;-82
2021/10/12 15:40:48;;;;;;;9.33;4.73;;;;;;;16.54;53.40;98845.78;6894299;28;20240;-83
2021/10/12 15:44:11;;;;;;;9.53;5.80;;;;;;;16.80;54.31;98868.88;6892893;28;20206;-82
2021/10/12 15:47:32;;;;;;;12.90;7.10;;;;;;;16.83;53.07;98858.34;6891454;28;20209;-82
2021/10/12 15:50:54;;;;;;;9.90;6.57;;;;;;;17.03;53.93;98869.59;6890604;28;20729;-83
2021/10/12 15:54:16;;;;;;;9.23;6.30;;;;;;;17.02;53.84;98867.94;6891168;28;20454;-81
2021/10/12 15:57:39;;;;;;;10.37;6.03;;;;;;;17.19;53.41;98871.53;6889965;28;20231;-81
2021/10/12 16:01:00;;;;;;;7.50;5.60;;;;;;;17.19;53.09;98857.06;6889848;28;20726;-81
2021/10/12 16:04:22;;;;;;;10.50;6.30;;;;;;;17.12;53.84;98867.31;6889724;28;20205;-81
2021/10/12 16:07:43;;;;;;;12.10;6.60;;;;;;;16.90;54.86;98863.63;6890025;28;20210;-81
2021/10/12 16:11:05;;;;;;;11.93;6.20;;;;;;;17.07;54.71;98869.94;6889339;28;20229;-82
2021/10/12 16:14:32;;;;;;;10.23;7.37;;;;;;;16.71;55.63;98873.06;6889247;28;20223;-81
2021/10/12 16:18:08;;;;;;;10.83;7.40;;;;;;;16.07;57.53;98876.00;6890214;28;20232;-81
2021/10/12 16:21:40;;;;;;;12.97;6.80;;;;;;;16.29;56.87;98860.72;6889554;28;20235;-83
2021/10/12 16:25:02;;;;;;;8.53;6.40;;;;;;;16.43;56.35;98873.00;6890438;28;20216;-81
2021/10/12 16:28:24;;;;;;;9.57;6.63;;;;;;;16.12;56.44;98849.78;6890004;28;20213;-82
2021/10/12 16:31:50;;;;;;;12.90;8.23;;;;;;;15.73;57.61;98844.22;6889044;28;20245;-81
2021/10/12 16:35:13;;;;;;;15.27;10.87;;;;;;;16.03;57.72;98853.91;6889610;28;20214;-81
2021/10/12 16:38:34;;;;;;;12.27;8.13;;;;;;;16.11;57.94;98850.00;6889300;28;20233;-81
2021/10/12 16:41:57;;;;;;;12.53;10.03;;;;;;;16.32;57.88;98882.84;6889474;28;20228;-84
2021/10/12 16:45:19;;;;;;;10.23;8.33;;;;;;;16.32;58.62;98880.13;6889512;28;20227;-81
2021/10/12 16:48:42;;;;;;;14.03;7.73;;;;;;;15.95;58.60;98854.28;6889297;28;20553;-83
2021/10/12 16:52:07;;;;;;;9.80;7.57;;;;;;;16.04;58.87;98871.88;6886522;28;20234;-82
2021/10/12 16:55:29;;;;;;;11.60;8.70;;;;;;;16.36;57.88;98886.75;6888260;28;20211;-82
2021/10/12 17:02:26;;;;;;;18.40;13.10;;;;;;;16.34;58.77;98890.78;6868698;28;20313;-80
2021/10/12 17:05:49;;;;;;;11.03;9.50;;;;;;;16.15;59.51;98898.25;6866292;28;20217;-81
2021/10/12 17:09:11;;;;;;;14.63;10.30;;;;;;;15.85;59.34;98902.97;6866774;28;20230;-81
2021/10/12 17:12:33;;;;;;;24.33;19.40;;;;;;;15.78;59.67;98913.16;6880562;28;20239;-81
2021/10/12 17:15:55;;;;;;;11.03;8.73;;;;;;;15.48;60.76;98903.41;6872600;28;20206;-81
2021/10/12 17:19:17;;;;;;;13.57;11.87;;;;;;;15.89;59.84;98914.22;6877868;28;20233;-81
2021/10/12 17:22:40;;;;;;;13.00;10.17;;;;;;;15.55;60.16;98915.00;6876165;28;20225;-81
2021/10/12 17:26:01;;;;;;;26.83;19.67;;;;;;;15.66;60.69;98912.31;6894311;28;20218;-80
2021/10/12 17:29:24;;;;;;;14.97;9.27;;;;;;;15.56;60.34;98859.59;6894419;28;20518;-81
2021/10/12 17:32:45;;;;;;;13.60;8.30;;;;;;;15.56;60.80;98887.59;6870628;28;20384;-81
2021/10/12 17:36:07;;;;;;;15.73;12.10;;;;;;;15.80;60.46;98902.84;6867579;28;20207;-81
2021/10/12 17:39:30;;;;;;;13.93;10.97;;;;;;;15.71;60.65;98912.44;6867806;28;20237;-81
2021/10/12 17:42:52;;;;;;;16.17;10.33;;;;;;;15.81;60.42;98906.41;6866332;28;20234;-81
2021/10/12 17:46:13;;;;;;;13.03;8.00;;;;;;;15.71;61.18;98901.56;6867390;28;20210;-81
2021/10/12 17:49:35;;;;;;;11.40;7.67;;;;;;;15.75;60.38;98888.34;6865293;28;20207;-83
2021/10/12 17:52:57;;;;;;;11.00;8.07;;;;;;;15.86;60.78;98893.75;6863774;28;20280;-83
2021/10/12 17:56:20;;;;;;;14.43;9.10;;;;;;;15.84;60.22;98897.78;6864248;28;20237;-81
2021/10/12 17:59:42;;;;;;;15.20;13.00;;;;;;;15.70;61.17;98901.81;6862554;28;20268;-80
2021/10/12 18:03:04;;;;;;;14.93;10.53;;;;;;;15.83;60.50;98909.72;6862527;28;20229;-82
2021/10/12 18:06:25;;;;;;;15.07;11.67;;;;;;;15.62;61.08;98880.41;6863046;28;20215;-82
2021/10/12 18:09:48;;;;;;;21.37;14.60;;;;;;;15.75;61.22;98899.22;6863316;28;20209;-81
2021/10/12 18:13:11;;;;;;;25.20;14.27;;;;;;;16.13;58.87;98900.38;6862254;28;20636;-80
2021/10/12 18:16:33;;;;;;;18.63;11.67;;;;;;;15.91;60.23;98893.03;6862486;28;20666;-80
2021/10/12 18:19:54;;;;;;;11.47;8.87;;;;;;;15.82;60.00;98897.19;6863063;28;20267;-82
2021/10/12 18:23:17;;;;;;;15.53;11.37;;;;;;;15.62;60.85;98902.97;6862425;28;20236;-83
2021/10/12 18:26:41;;;;;;;14.27;10.70;;;;;;;15.53;61.14;98904.38;6870651;28;20282;-84
2021/10/12 18:30:05;;;;;;;12.77;8.70;;;;;;;15.80;60.38;98908.31;6865238;28;20228;-80
2021/10/12 18:33:27;;;;;;;12.73;10.63;;;;;;;15.79;60.81;98897.66;6862238;28;20232;-80
2021/10/12 18:36:49;;;;;;;18.93;11.17;;;;;;;15.48;61.21;98906.97;6863120;28;20250;-81
2021/10/12 18:40:12;;;;;;;7.43;5.40;;;;;;;15.32;61.90;98902.22;6865204;28;20229;-82
2021/10/12 18:43:33;;;;;;;16.30;11.83;;;;;;;15.62;60.97;98902.16;6869705;28;20678;-81
2021/10/12 18:46:56;;;;;;;23.53;18.97;;;;;;;15.13;62.07;98883.47;6884285;28;20220;-81
2021/10/12 18:50:19;;;;;;;15.13;10.33;;;;;;;15.41;61.29;98892.69;6879119;28;20219;-80
2021/10/12 18:53:43;;;;;;;14.37;11.23;;;;;;;15.44;61.53;98902.22;6862399;28;20217;-79
2021/10/12 18:57:04;;;;;;;11.33;8.20;;;;;;;15.53;61.56;98904.38;6862711;28;20236;-80
2021/10/12 19:00:27;;;;;;;8.90;7.37;;;;;;;15.33;62.37;98887.56;6862015;28;20236;-80
2021/10/12 19:03:51;;;;;;;10.33;7.13;;;;;;;15.38;62.17;98900.44;6862219;28;20214;-80
2021/10/12 19:07:12;;;;;;;10.57;7.53;;;;;;;15.50;61.82;98898.56;6862035;28;20237;-79
2021/10/12 19:10:34;;;;;;;10.17;6.67;;;;;;;15.23;62.52;98894.59;6861892;28;20225;-82
2021/10/12 19:13:56;;;;;;;13.47;12.07;;;;;;;15.13;62.42;98887.03;6862019;28;20215;-80